sensor_id;sensor_type;location;lat;lon;timestamp;pressure;altitude;pressure_sealevel;temperature;humidity
70343;BME280;57767;42.068;24.752;2023-01-24T00:00:05;100180.13;;;3.64;100.00
70343;BME280;57767;42.068;24.752;2023-01-24T00:01:07;100181.78;;;3.65;100.00
70343;BME280;57767;42.068;24.752;2023-01-24T00:02:08;100156.72;;;3.53;100.00
70343;BME280;57767;42.068;24.752;2023-01-24T00:03:10;100173.75;;;3.57;100.00
70343;BME280;57767;42.068;24.752;2023-01-24T00:04:14;100182.72;;;3.64;100.00
70343;BME280;57767;42.068;24.752;2023-01-24T00:05:15;100181.47;;;3.58;100.00
70343;BME280;57767;42.068;24.752;2023-01-24T00:06:17;100178.72;;;3.60;100.00
70343;BME280;57767;42.068;24.752;2023-01-24T00:07:19;100174.88;;;3.54;100.00
70343;BME280;57767;42.068;24.752;2023-01-24T00:08:22;100185.84;;;3.58;100.00
70343;BME280;57767;42.068;24.752;2023-01-24T00:09:24;100185.59;;;3.61;100.00
70343;BME280;57767;42.068;24.752;2023-01-24T00:10:26;100190.13;;;3.59;99.83
70343;BME280;57767;42.068;24.752;2023-01-24T00:11:28;100188.91;;;3.63;100.00
70343;BME280;57767;42.068;24.752;2023-01-24T00:12:30;100194.84;;;3.65;100.00
70343;BME280;57767;42.068;24.752;2023-01-24T00:13:32;100185.22;;;3.66;100.00
70343;BME280;57767;42.068;24.752;2023-01-24T00:14:34;100187.94;;;3.64;99.97
70343;BME280;57767;42.068;24.752;2023-01-24T00:15:36;100192.63;;;3.70;100.00
70343;BME280;57767;42.068;24.752;2023-01-24T00:16:38;100185.72;;;3.59;100.00
70343;BME280;57767;42.068;24.752;2023-01-24T00:17:39;100195.66;;;3.66;99.68
70343;BME280;57767;42.068;24.752;2023-01-24T00:18:41;100192.72;;;3.59;99.63
70343;BME280;57767;42.068;24.752;2023-01-24T00:19:43;100196.50;;;3.66;100.00
70343;BME280;57767;42.068;24.752;2023-01-24T00:20:45;100193.19;;;3.64;100.00
70343;BME280;57767;42.068;24.752;2023-01-24T00:21:46;100186.03;;;3.66;99.51
70343;BME280;57767;42.068;24.752;2023-01-24T00:22:48;100194.00;;;3.65;99.48
70343;BME280;57767;42.068;24.752;2023-01-24T00:23:54;100189.75;;;3.64;100.00
70343;BME280;57767;42.068;24.752;2023-01-24T00:24:56;100194.13;;;3.63;99.81
70343;BME280;57767;42.068;24.752;2023-01-24T00:25:57;100198.41;;;3.64;100.00
70343;BME280;57767;42.068;24.752;2023-01-24T00:26:59;100184.31;;;3.55;99.83
70343;BME280;57767;42.068;24.752;2023-01-24T00:28:01;100187.50;;;3.59;99.56
70343;BME280;57767;42.068;24.752;2023-01-24T00:29:03;100196.16;;;3.59;99.88
70343;BME280;57767;42.068;24.752;2023-01-24T00:30:06;100189.00;;;3.52;99.88
70343;BME280;57767;42.068;24.752;2023-01-24T00:31:08;100198.22;;;3.56;99.44
70343;BME280;57767;42.068;24.752;2023-01-24T00:32:10;100191.06;;;3.58;99.57
70343;BME280;57767;42.068;24.752;2023-01-24T00:33:12;100187.63;;;3.57;99.45
70343;BME280;57767;42.068;24.752;2023-01-24T00:34:13;100189.88;;;3.62;99.59
70343;BME280;57767;42.068;24.752;2023-01-24T00:35:15;100179.63;;;3.49;99.11
70343;BME280;57767;42.068;24.752;2023-01-24T00:36:17;100198.38;;;3.54;99.28
70343;BME280;57767;42.068;24.752;2023-01-24T00:37:19;100179.63;;;3.49;99.01
70343;BME280;57767;42.068;24.752;2023-01-24T00:38:21;100190.22;;;3.48;98.95
70343;BME280;57767;42.068;24.752;2023-01-24T00:39:23;100195.56;;;3.46;98.97
70343;BME280;57767;42.068;24.752;2023-01-24T00:40:25;100185.25;;;3.45;99.04
70343;BME280;57767;42.068;24.752;2023-01-24T00:41:27;100201.03;;;3.43;99.17
70343;BME280;57767;42.068;24.752;2023-01-24T00:42:28;100201.31;;;3.40;99.14
70343;BME280;57767;42.068;24.752;2023-01-24T00:43:30;100193.72;;;3.37;99.17
70343;BME280;57767;42.068;24.752;2023-01-24T00:44:32;100197.53;;;3.33;99.59
70343;BME280;57767;42.068;24.752;2023-01-24T00:45:37;100188.06;;;3.32;100.00
70343;BME280;57767;42.068;24.752;2023-01-24T00:46:39;100199.06;;;3.36;99.69
70343;BME280;57767;42.068;24.752;2023-01-24T00:47:41;100199.19;;;3.34;99.37
70343;BME280;57767;42.068;24.752;2023-01-24T00:48:43;100207.03;;;3.34;99.68
70343;BME280;57767;42.068;24.752;2023-01-24T00:49:44;100199.06;;;3.36;99.49
70343;BME280;57767;42.068;24.752;2023-01-24T00:50:46;100197.41;;;3.35;100.00
70343;BME280;57767;42.068;24.752;2023-01-24T00:51:48;100203.22;;;3.38;100.00
70343;BME280;57767;42.068;24.752;2023-01-24T00:52:50;100193.56;;;3.29;99.37
70343;BME280;57767;42.068;24.752;2023-01-24T00:53:52;100204.28;;;3.36;99.86
70343;BME280;57767;42.068;24.752;2023-01-24T00:54:53;100205.13;;;3.36;100.00
70343;BME280;57767;42.068;24.752;2023-01-24T00:55:55;100201.44;;;3.39;99.88
70343;BME280;57767;42.068;24.752;2023-01-24T00:56:57;100199.31;;;3.33;99.94
70343;BME280;57767;42.068;24.752;2023-01-24T00:57:59;100202.50;;;3.36;99.66
70343;BME280;57767;42.068;24.752;2023-01-24T00:59:01;100199.53;;;3.41;99.51
70343;BME280;57767;42.068;24.752;2023-01-24T01:00:03;100193.56;;;3.29;99.20
70343;BME280;57767;42.068;24.752;2023-01-24T01:01:05;100204.41;;;3.34;99.45
70343;BME280;57767;42.068;24.752;2023-01-24T01:02:07;100207.88;;;3.35;99.78
70343;BME280;57767;42.068;24.752;2023-01-24T01:03:14;100205.00;;;3.38;99.31
70343;BME280;57767;42.068;24.752;2023-01-24T01:04:16;100208.44;;;3.38;99.74
70343;BME280;57767;42.068;24.752;2023-01-24T01:05:18;100192.84;;;3.27;99.25
70343;BME280;57767;42.068;24.752;2023-01-24T01:06:20;100206.31;;;3.32;99.06
70343;BME280;57767;42.068;24.752;2023-01-24T01:07:22;100212.50;;;3.31;99.62
70343;BME280;57767;42.068;24.752;2023-01-24T01:08:24;100199.84;;;3.27;99.13
70343;BME280;57767;42.068;24.752;2023-01-24T01:09:26;100205.06;;;3.27;98.99
70343;BME280;57767;42.068;24.752;2023-01-24T01:10:27;100207.03;;;3.34;99.43
70343;BME280;57767;42.068;24.752;2023-01-24T01:11:29;100204.53;;;3.33;99.54
70343;BME280;57767;42.068;24.752;2023-01-24T01:12:31;100200.16;;;3.33;99.93
70343;BME280;57767;42.068;24.752;2023-01-24T01:13:33;100203.41;;;3.26;99.30
70343;BME280;57767;42.068;24.752;2023-01-24T01:14:34;100210.59;;;3.33;99.99
70343;BME280;57767;42.068;24.752;2023-01-24T01:15:36;100204.78;;;3.30;99.40
70343;BME280;57767;42.068;24.752;2023-01-24T01:16:39;100209.53;;;3.36;100.00
70343;BME280;57767;42.068;24.752;2023-01-24T01:17:41;100215.00;;;3.33;99.73
70343;BME280;57767;42.068;24.752;2023-01-24T01:18:43;100210.72;;;3.32;99.34
70343;BME280;57767;42.068;24.752;2023-01-24T01:19:45;100208.94;;;3.32;99.93
70343;BME280;57767;42.068;24.752;2023-01-24T01:20:49;100211.00;;;3.29;99.21
70343;BME280;57767;42.068;24.752;2023-01-24T01:21:52;100213.59;;;3.29;99.32
70343;BME280;57767;42.068;24.752;2023-01-24T01:22:54;100208.38;;;3.29;99.51
70343;BME280;57767;42.068;24.752;2023-01-24T01:23:56;100204.00;;;3.29;99.80
70343;BME280;57767;42.068;24.752;2023-01-24T01:24:58;100206.22;;;3.34;99.51
70343;BME280;57767;42.068;24.752;2023-01-24T01:26:05;100207.28;;;3.31;99.55
70343;BME280;57767;42.068;24.752;2023-01-24T01:27:07;100208.38;;;3.29;99.61
70343;BME280;57767;42.068;24.752;2023-01-24T01:28:09;100209.47;;;3.26;99.97
70343;BME280;57767;42.068;24.752;2023-01-24T01:29:11;100207.28;;;3.31;99.68
70343;BME280;57767;42.068;24.752;2023-01-24T01:30:12;100216.06;;;3.30;99.95
70343;BME280;57767;42.068;24.752;2023-01-24T01:31:15;100213.22;;;3.33;99.69
70343;BME280;57767;42.068;24.752;2023-01-24T01:32:17;100211.44;;;3.34;100.00
70343;BME280;57767;42.068;24.752;2023-01-24T01:33:19;100214.63;;;3.37;99.57
70343;BME280;57767;42.068;24.752;2023-01-24T01:34:21;100214.03;;;3.34;99.51
70343;BME280;57767;42.068;24.752;2023-01-24T01:35:22;100210.47;;;3.35;100.00
70343;BME280;57767;42.068;24.752;2023-01-24T01:36:25;100198.63;;;3.31;100.00
70343;BME280;57767;42.068;24.752;2023-01-24T01:37:26;100211.19;;;3.37;100.00
70343;BME280;57767;42.068;24.752;2023-01-24T01:38:28;100207.19;;;3.42;100.00
70343;BME280;57767;42.068;24.752;2023-01-24T01:39:30;100212.44;;;3.42;99.50
70343;BME280;57767;42.068;24.752;2023-01-24T01:40:32;100209.69;;;3.44;99.27
70343;BME280;57767;42.068;24.752;2023-01-24T01:41:33;100208.75;;;3.45;99.23
70343;BME280;57767;42.068;24.752;2023-01-24T01:42:55;100206.13;;;3.45;99.47
70343;BME280;57767;42.068;24.752;2023-01-24T01:43:57;100201.34;;;3.50;99.34
70343;BME280;57767;42.068;24.752;2023-01-24T01:45:33;100206.81;;;3.47;98.65
70343;BME280;57767;42.068;24.752;2023-01-24T01:46:44;100201.72;;;3.45;98.90
70343;BME280;57767;42.068;24.752;2023-01-24T01:47:48;100196.22;;;3.39;98.72
70343;BME280;57767;42.068;24.752;2023-01-24T01:48:52;100206.53;;;3.40;98.56
70343;BME280;57767;42.068;24.752;2023-01-24T01:51:21;100206.81;;;3.47;99.08
70343;BME280;57767;42.068;24.752;2023-01-24T01:52:25;100199.00;;;3.47;98.32
70343;BME280;57767;42.068;24.752;2023-01-24T01:53:31;100203.00;;;3.51;98.73
70343;BME280;57767;42.068;24.752;2023-01-24T01:54:41;100199.44;;;3.52;98.39
70343;BME280;57767;42.068;24.752;2023-01-24T01:55:50;100197.78;;;3.51;98.38
70343;BME280;57767;42.068;24.752;2023-01-24T01:57:30;100193.28;;;3.53;98.86
70343;BME280;57767;42.068;24.752;2023-01-24T01:58:25;100189.25;;;3.49;98.14
70343;BME280;57767;42.068;24.752;2023-01-24T01:59:34;100193.16;;;3.54;98.71
70343;BME280;57767;42.068;24.752;2023-01-24T02:00:37;100198.91;;;3.58;98.53
70343;BME280;57767;42.068;24.752;2023-01-24T02:01:39;100197.25;;;3.57;98.37
70343;BME280;57767;42.068;24.752;2023-01-24T02:02:46;100201.09;;;3.53;98.50
70343;BME280;57767;42.068;24.752;2023-01-24T02:03:53;100201.53;;;3.58;98.30
70343;BME280;57767;42.068;24.752;2023-01-24T02:05:02;100206.31;;;3.53;97.90
70343;BME280;57767;42.068;24.752;2023-01-24T02:08:39;100203.13;;;3.49;97.89
70343;BME280;57767;42.068;24.752;2023-01-24T02:09:44;100196.63;;;3.44;97.52
70343;BME280;57767;42.068;24.752;2023-01-24T02:10:50;100207.16;;;3.53;97.62
70343;BME280;57767;42.068;24.752;2023-01-24T02:12:14;100206.31;;;3.53;97.62
70343;BME280;57767;42.068;24.752;2023-01-24T02:13:18;100187.94;;;3.34;97.63
70343;BME280;57767;42.068;24.752;2023-01-24T02:14:21;100212.59;;;3.41;97.74
70343;BME280;57767;42.068;24.752;2023-01-24T02:15:56;100200.97;;;3.34;97.17
70343;BME280;57767;42.068;24.752;2023-01-24T02:17:04;100202.06;;;3.31;97.22
70343;BME280;57767;42.068;24.752;2023-01-24T02:18:08;100203.16;;;3.29;97.83
70343;BME280;57767;42.068;24.752;2023-01-24T02:19:40;100195.47;;;3.27;97.43
70343;BME280;57767;42.068;24.752;2023-01-24T02:20:44;100201.81;;;3.34;97.57
70343;BME280;57767;42.068;24.752;2023-01-24T02:21:52;100208.56;;;3.37;98.16
70343;BME280;57767;42.068;24.752;2023-01-24T02:24:25;100211.19;;;3.37;98.14
70343;BME280;57767;42.068;24.752;2023-01-24T02:26:38;100178.22;;;3.15;98.00
70343;BME280;57767;42.068;24.752;2023-01-24T02:27:40;100215.69;;;3.35;97.49
70343;BME280;57767;42.068;24.752;2023-01-24T02:28:52;100208.09;;;3.32;97.90
70343;BME280;57767;42.068;24.752;2023-01-24T02:29:56;100207.88;;;3.35;97.77
70343;BME280;57767;42.068;24.752;2023-01-24T02:30:59;100220.25;;;3.42;98.31
70343;BME280;57767;42.068;24.752;2023-01-24T02:32:05;100220.00;;;3.45;97.73
70343;BME280;57767;42.068;24.752;2023-01-24T02:33:14;100222.50;;;3.47;97.96
70343;BME280;57767;42.068;24.752;2023-01-24T02:34:16;100225.81;;;3.49;97.86
70343;BME280;57767;42.068;24.752;2023-01-24T02:35:30;100209.53;;;3.36;97.54
70343;BME280;57767;42.068;24.752;2023-01-24T02:36:36;100227.13;;;3.43;97.05
70343;BME280;57767;42.068;24.752;2023-01-24T02:37:39;100222.63;;;3.45;97.26
70343;BME280;57767;42.068;24.752;2023-01-24T02:38:43;100220.25;;;3.42;97.55
70343;BME280;57767;42.068;24.752;2023-01-24T02:39:48;100220.59;;;3.49;97.63
70343;BME280;57767;42.068;24.752;2023-01-24T02:40:57;100217.28;;;3.47;97.34
70343;BME280;57767;42.068;24.752;2023-01-24T02:42:13;100225.81;;;3.49;96.94
70343;BME280;57767;42.068;24.752;2023-01-24T02:43:17;100216.03;;;3.41;97.08
70343;BME280;57767;42.068;24.752;2023-01-24T02:44:25;100222.25;;;3.50;97.36
70343;BME280;57767;42.068;24.752;2023-01-24T02:45:31;100224.47;;;3.54;97.60
70343;BME280;57767;42.068;24.752;2023-01-24T02:46:37;100218.44;;;3.54;96.73
70343;BME280;57767;42.068;24.752;2023-01-24T02:47:50;100224.31;;;3.56;96.65
70343;BME280;57767;42.068;24.752;2023-01-24T02:48:52;100231.31;;;3.55;96.45
70343;BME280;57767;42.068;24.752;2023-01-24T02:49:54;100220.13;;;3.44;96.97
70343;BME280;57767;42.068;24.752;2023-01-24T02:50:56;100224.03;;;3.49;97.20
70343;BME280;57767;42.068;24.752;2023-01-24T02:52:16;100218.47;;;3.43;97.18
70343;BME280;57767;42.068;24.752;2023-01-24T02:53:37;100221.38;;;3.40;96.72
70343;BME280;57767;42.068;24.752;2023-01-24T02:54:40;100224.47;;;3.34;96.79
70343;BME280;57767;42.068;24.752;2023-01-24T02:55:42;100222.63;;;3.24;96.80
70343;BME280;57767;42.068;24.752;2023-01-24T02:57:03;100227.88;;;3.24;97.11
70343;BME280;57767;42.068;24.752;2023-01-24T02:58:24;100214.63;;;3.16;97.46
70343;BME280;57767;42.068;24.752;2023-01-24T02:59:26;100222.06;;;3.21;97.33
70343;BME280;57767;42.068;24.752;2023-01-24T03:00:28;100225.06;;;3.16;97.25
70343;BME280;57767;42.068;24.752;2023-01-24T03:01:30;100221.22;;;3.20;98.06
70343;BME280;57767;42.068;24.752;2023-01-24T03:02:32;100212.41;;;3.12;97.41
70343;BME280;57767;42.068;24.752;2023-01-24T03:03:34;100213.94;;;3.14;98.08
70343;BME280;57767;42.068;24.752;2023-01-24T03:04:36;100224.03;;;3.08;97.56
70343;BME280;57767;42.068;24.752;2023-01-24T03:05:38;100224.63;;;3.11;97.68
70343;BME280;57767;42.068;24.752;2023-01-24T03:06:58;100213.28;;;3.01;97.86
70343;BME280;57767;42.068;24.752;2023-01-24T03:08:00;100212.34;;;3.02;98.23
70343;BME280;57767;42.068;24.752;2023-01-24T03:09:02;100220.59;;;3.07;98.17
70343;BME280;57767;42.068;24.752;2023-01-24T03:10:19;100203.56;;;3.03;98.04
70343;BME280;57767;42.068;24.752;2023-01-24T03:11:22;100230.97;;;3.18;98.56
70343;BME280;57767;42.068;24.752;2023-01-24T03:12:24;100224.53;;;3.22;98.75
70343;BME280;57767;42.068;24.752;2023-01-24T03:13:44;100223.25;;;3.17;98.18
70343;BME280;57767;42.068;24.752;2023-01-24T03:15:05;100225.31;;;3.13;98.28
70343;BME280;57767;42.068;24.752;2023-01-24T03:16:25;100220.34;;;3.10;98.27
70343;BME280;57767;42.068;24.752;2023-01-24T03:17:46;100222.00;;;3.11;97.96
70343;BME280;57767;42.068;24.752;2023-01-24T03:19:07;100216.13;;;2.98;98.14
70343;BME280;57767;42.068;24.752;2023-01-24T03:20:28;100228.94;;;3.01;98.23
70343;BME280;57767;42.068;24.752;2023-01-24T03:21:48;100227.88;;;2.93;97.96
70343;BME280;57767;42.068;24.752;2023-01-24T03:23:08;100214.84;;;2.93;98.15
70343;BME280;57767;42.068;24.752;2023-01-24T03:24:29;100225.16;;;2.94;98.40
70343;BME280;57767;42.068;24.752;2023-01-24T03:25:53;100220.91;;;2.93;98.69
70343;BME280;57767;42.068;24.752;2023-01-24T03:27:14;100219.38;;;2.91;98.90
70343;BME280;57767;42.068;24.752;2023-01-24T03:28:35;100217.78;;;2.99;99.09
70343;BME280;57767;42.068;24.752;2023-01-24T03:29:55;100224.91;;;2.97;99.78
70343;BME280;57767;42.068;24.752;2023-01-24T03:31:16;100219.94;;;2.94;99.71
70343;BME280;57767;42.068;24.752;2023-01-24T03:32:37;100223.50;;;2.93;99.12
70343;BME280;57767;42.068;24.752;2023-01-24T03:33:57;100207.06;;;2.81;99.61
70343;BME280;57767;42.068;24.752;2023-01-24T03:35:18;100214.53;;;2.86;99.34
70343;BME280;57767;42.068;24.752;2023-01-24T03:36:20;100217.84;;;2.88;99.15
70343;BME280;57767;42.068;24.752;2023-01-24T03:37:33;100215.19;;;2.78;99.66
70343;BME280;57767;42.068;24.752;2023-01-24T03:38:53;100204.59;;;2.80;99.92
70343;BME280;57767;42.068;24.752;2023-01-24T03:40:15;100217.59;;;2.91;99.18
70343;BME280;57767;42.068;24.752;2023-01-24T03:41:17;100212.25;;;2.93;99.26
70343;BME280;57767;42.068;24.752;2023-01-24T03:42:19;100201.63;;;2.84;99.36
70343;BME280;57767;42.068;24.752;2023-01-24T03:43:20;100213.59;;;2.87;99.20
70343;BME280;57767;42.068;24.752;2023-01-24T03:44:22;100204.81;;;2.88;99.27
70343;BME280;57767;42.068;24.752;2023-01-24T03:45:31;100215.25;;;2.88;99.21
70343;BME280;57767;42.068;24.752;2023-01-24T03:46:33;100185.69;;;2.67;99.78
70343;BME280;57767;42.068;24.752;2023-01-24T03:47:35;100208.72;;;2.82;99.14
70343;BME280;57767;42.068;24.752;2023-01-24T03:48:36;100214.66;;;2.84;99.75
70343;BME280;57767;42.068;24.752;2023-01-24T03:49:38;100213.25;;;2.80;99.34
70343;BME280;57767;42.068;24.752;2023-01-24T03:50:58;100216.94;;;2.78;99.67
70343;BME280;57767;42.068;24.752;2023-01-24T03:52:19;100202.97;;;2.68;99.39
70343;BME280;57767;42.068;24.752;2023-01-24T03:53:31;100223.94;;;2.77;99.60
70343;BME280;57767;42.068;24.752;2023-01-24T03:54:33;100211.28;;;2.73;99.58
70343;BME280;57767;42.068;24.752;2023-01-24T03:55:35;100212.94;;;2.74;99.86
70343;BME280;57767;42.068;24.752;2023-01-24T03:56:36;100209.38;;;2.75;100.00
70343;BME280;57767;42.068;24.752;2023-01-24T03:57:38;100204.63;;;2.69;100.00
70343;BME280;57767;42.068;24.752;2023-01-24T03:58:40;100207.00;;;2.72;99.85
70343;BME280;57767;42.068;24.752;2023-01-24T03:59:42;100190.69;;;2.59;99.92
70343;BME280;57767;42.068;24.752;2023-01-24T04:00:44;100211.03;;;2.76;100.00
70343;BME280;57767;42.068;24.752;2023-01-24T04:01:45;100212.09;;;2.73;100.00
70343;BME280;57767;42.068;24.752;2023-01-24T04:02:47;100211.28;;;2.73;100.00
70343;BME280;57767;42.068;24.752;2023-01-24T04:03:49;100215.66;;;2.72;100.00
70343;BME280;57767;42.068;24.752;2023-01-24T04:04:50;100205.88;;;2.65;100.00
70343;BME280;57767;42.068;24.752;2023-01-24T04:06:11;100203.50;;;2.62;100.00
70343;BME280;57767;42.068;24.752;2023-01-24T04:07:13;100198.28;;;2.62;100.00
70343;BME280;57767;42.068;24.752;2023-01-24T04:08:27;100196.09;;;2.67;100.00
70343;BME280;57767;42.068;24.752;2023-01-24T04:09:28;100202.97;;;2.68;100.00
70343;BME280;57767;42.068;24.752;2023-01-24T04:10:31;100212.34;;;2.70;100.00
70343;BME280;57767;42.068;24.752;2023-01-24T04:11:33;100188.56;;;2.64;100.00
70343;BME280;57767;42.068;24.752;2023-01-24T04:12:34;100205.59;;;2.68;100.00
70343;BME280;57767;42.068;24.752;2023-01-24T04:13:36;100201.72;;;2.62;100.00
70343;BME280;57767;42.068;24.752;2023-01-24T04:14:38;100209.84;;;2.69;100.00
70343;BME280;57767;42.068;24.752;2023-01-24T04:15:40;100207.94;;;2.71;100.00
70343;BME280;57767;42.068;24.752;2023-01-24T04:16:41;100210.44;;;2.72;100.00
70343;BME280;57767;42.068;24.752;2023-01-24T04:17:43;100208.19;;;2.68;100.00
70343;BME280;57767;42.068;24.752;2023-01-24T04:18:45;100202.16;;;2.67;100.00
70343;BME280;57767;42.068;24.752;2023-01-24T04:19:47;100204.63;;;2.69;100.00
70343;BME280;57767;42.068;24.752;2023-01-24T04:20:49;100206.28;;;2.70;100.00
70343;BME280;57767;42.068;24.752;2023-01-24T04:21:51;100213.75;;;2.74;100.00
70343;BME280;57767;42.068;24.752;2023-01-24T04:22:53;100216.94;;;2.78;100.00
70343;BME280;57767;42.068;24.752;2023-01-24T04:23:54;100213.53;;;2.77;100.00
70343;BME280;57767;42.068;24.752;2023-01-24T04:24:56;100218.59;;;2.79;100.00
70343;BME280;57767;42.068;24.752;2023-01-24T04:25:58;100213.06;;;2.72;100.00
70343;BME280;57767;42.068;24.752;2023-01-24T04:27:01;100210.31;;;2.74;100.00
70343;BME280;57767;42.068;24.752;2023-01-24T04:28:03;100206.06;;;2.73;100.00
70343;BME280;57767;42.068;24.752;2023-01-24T04:29:05;100213.63;;;2.76;100.00
70343;BME280;57767;42.068;24.752;2023-01-24T04:30:09;100203.31;;;2.74;100.00
70343;BME280;57767;42.068;24.752;2023-01-24T04:31:11;100202.97;;;2.68;100.00
70343;BME280;57767;42.068;24.752;2023-01-24T04:32:13;100211.75;;;2.67;100.00
70343;BME280;57767;42.068;24.752;2023-01-24T04:33:15;100211.50;;;2.70;100.00
70343;BME280;57767;42.068;24.752;2023-01-24T04:34:17;100210.69;;;2.69;100.00
70343;BME280;57767;42.068;24.752;2023-01-24T04:35:24;100205.22;;;2.72;100.00
70343;BME280;57767;42.068;24.752;2023-01-24T04:36:26;100211.50;;;2.70;99.89
70343;BME280;57767;42.068;24.752;2023-01-24T04:37:29;100212.34;;;2.70;99.97
70343;BME280;57767;42.068;24.752;2023-01-24T04:38:31;100206.75;;;2.75;100.00
70343;BME280;57767;42.068;24.752;2023-01-24T04:39:32;100204.41;;;2.72;100.00
70343;BME280;57767;42.068;24.752;2023-01-24T04:40:34;100192.34;;;2.60;99.99
70343;BME280;57767;42.068;24.752;2023-01-24T04:41:36;100215.06;;;2.69;100.00
70343;BME280;57767;42.068;24.752;2023-01-24T04:42:38;100208.72;;;2.62;100.00
70343;BME280;57767;42.068;24.752;2023-01-24T04:43:40;100212.97;;;2.63;99.79
70343;BME280;57767;42.068;24.752;2023-01-24T04:44:42;100195.91;;;2.59;99.67
70343;BME280;57767;42.068;24.752;2023-01-24T04:45:43;100217.81;;;2.67;100.00
70343;BME280;57767;42.068;24.752;2023-01-24T04:46:45;100212.84;;;2.64;99.93
70343;BME280;57767;42.068;24.752;2023-01-24T04:47:47;100222.47;;;2.64;99.78
70343;BME280;57767;42.068;24.752;2023-01-24T04:48:48;100206.38;;;2.47;99.48
70343;BME280;57767;42.068;24.752;2023-01-24T04:49:50;100216.56;;;2.50;99.92
70343;BME280;57767;42.068;24.752;2023-01-24T04:50:57;100209.56;;;2.51;99.78
70343;BME280;57767;42.068;24.752;2023-01-24T04:51:59;100190.06;;;2.34;99.52
70343;BME280;57767;42.068;24.752;2023-01-24T04:53:01;100224.13;;;2.53;99.19
70343;BME280;57767;42.068;24.752;2023-01-24T04:54:02;100211.91;;;2.54;99.97
70343;BME280;57767;42.068;24.752;2023-01-24T04:55:05;100208.50;;;2.42;100.00
70343;BME280;57767;42.068;24.752;2023-01-24T04:56:07;100225.56;;;2.46;99.43
70343;BME280;57767;42.068;24.752;2023-01-24T04:57:11;100211.25;;;2.41;99.76
70343;BME280;57767;42.068;24.752;2023-01-24T04:58:13;100217.88;;;2.45;99.63
70343;BME280;57767;42.068;24.752;2023-01-24T04:59:15;100218.81;;;2.44;99.58
70343;BME280;57767;42.068;24.752;2023-01-24T05:00:16;100210.69;;;2.37;99.64
70343;BME280;57767;42.068;24.752;2023-01-24T05:01:18;100210.69;;;2.37;99.59
70343;BME280;57767;42.068;24.752;2023-01-24T05:02:20;100227.25;;;2.47;100.00
70343;BME280;57767;42.068;24.752;2023-01-24T05:03:22;100203.06;;;2.45;100.00
70343;BME280;57767;42.068;24.752;2023-01-24T05:04:23;100222.94;;;2.58;99.83
70343;BME280;57767;42.068;24.752;2023-01-24T05:05:25;100220.13;;;2.49;99.79
70343;BME280;57767;42.068;24.752;2023-01-24T05:06:29;100219.66;;;2.44;99.60
70343;BME280;57767;42.068;24.752;2023-01-24T05:07:31;100222.97;;;2.46;99.91
70343;BME280;57767;42.068;24.752;2023-01-24T05:08:32;100216.94;;;2.46;99.62
70343;BME280;57767;42.068;24.752;2023-01-24T05:09:34;100225.09;;;2.41;99.42
70343;BME280;57767;42.068;24.752;2023-01-24T05:10:36;100227.16;;;2.38;99.47
70343;BME280;57767;42.068;24.752;2023-01-24T05:11:38;100227.38;;;2.35;98.95
70343;BME280;57767;42.068;24.752;2023-01-24T05:12:39;100230.13;;;2.33;98.87
70343;BME280;57767;42.068;24.752;2023-01-24T05:13:41;100236.50;;;2.29;99.41
70343;BME280;57767;42.068;24.752;2023-01-24T05:14:43;100233.06;;;2.29;99.74
70343;BME280;57767;42.068;24.752;2023-01-24T05:15:49;100239.09;;;2.29;99.47
70343;BME280;57767;42.068;24.752;2023-01-24T05:16:51;100231.78;;;2.34;99.77
70343;BME280;57767;42.068;24.752;2023-01-24T05:17:52;100231.28;;;2.29;99.66
70343;BME280;57767;42.068;24.752;2023-01-24T05:18:54;100228.69;;;2.29;99.90
70343;BME280;57767;42.068;24.752;2023-01-24T05:19:56;100228.22;;;2.35;100.00
70343;BME280;57767;42.068;24.752;2023-01-24T05:21:04;100234.03;;;2.39;100.00
70343;BME280;57767;42.068;24.752;2023-01-24T05:22:06;100233.06;;;2.40;99.74
70343;BME280;57767;42.068;24.752;2023-01-24T05:23:08;100236.75;;;2.37;99.67
70343;BME280;57767;42.068;24.752;2023-01-24T05:24:10;100232.00;;;2.31;99.48
70343;BME280;57767;42.068;24.752;2023-01-24T05:25:14;100219.91;;;2.30;99.52
70343;BME280;57767;42.068;24.752;2023-01-24T05:26:17;100236.63;;;2.39;99.86
70343;BME280;57767;42.068;24.752;2023-01-24T05:27:19;100232.81;;;2.43;99.41
70343;BME280;57767;42.068;24.752;2023-01-24T05:28:21;100225.69;;;2.45;99.43
70343;BME280;57767;42.068;24.752;2023-01-24T05:29:22;100225.81;;;2.43;99.51
70343;BME280;57767;42.068;24.752;2023-01-24T05:30:24;100236.25;;;2.43;99.15
70343;BME280;57767;42.068;24.752;2023-01-24T05:31:26;100229.84;;;2.47;99.77
70343;BME280;57767;42.068;24.752;2023-01-24T05:32:27;100238.25;;;2.51;99.26
70343;BME280;57767;42.068;24.752;2023-01-24T05:33:29;100230.78;;;2.46;99.39
70343;BME280;57767;42.068;24.752;2023-01-24T05:34:31;100232.94;;;2.41;99.32
70343;BME280;57767;42.068;24.752;2023-01-24T05:35:33;100236.50;;;2.40;99.23
70343;BME280;57767;42.068;24.752;2023-01-24T05:36:34;100237.19;;;2.42;99.30
70343;BME280;57767;42.068;24.752;2023-01-24T05:37:37;100234.22;;;2.47;99.47
70343;BME280;57767;42.068;24.752;2023-01-24T05:38:40;100236.94;;;2.45;99.58
70343;BME280;57767;42.068;24.752;2023-01-24T05:39:42;100232.22;;;2.50;99.71
70343;BME280;57767;42.068;24.752;2023-01-24T05:40:44;100231.63;;;2.47;99.30
70343;BME280;57767;42.068;24.752;2023-01-24T05:41:46;100233.63;;;2.43;99.09
70343;BME280;57767;42.068;24.752;2023-01-24T05:42:48;100238.38;;;2.49;99.02
70343;BME280;57767;42.068;24.752;2023-01-24T05:43:49;100234.34;;;2.45;98.96
70343;BME280;57767;42.068;24.752;2023-01-24T05:44:51;100239.22;;;2.39;98.85